Time;durP1;ratioP1;P1;durP2;ratioP2;P2;SDS_P1;SDS_P2;PMS_P1;PMS_P2;Temp;Humidity;BMP_temperature;BMP_pressure;BME280_temperature;BME280_humidity;BME280_pressure;Samples;Min_cycle;Max_cycle;Signal;HPM_P1;HPM_P2
2023/04/27 00:00:17;;;;;;;5.03;4.00;;;;;;;;;;5114094;28;20260;-79
2023/04/27 00:02:45;;;;;;;4.63;3.93;;;;;;;;;;5113903;28;20194;-79
2023/04/27 00:05:12;;;;;;;4.63;3.70;;;;;;;;;;5114201;28;20190;-79
2023/04/27 00:07:40;;;;;;;4.83;3.93;;;;;;;;;;5113981;28;20221;-79
2023/04/27 00:10:09;;;;;;;5.80;3.97;;;;;;;;;;5114361;28;20201;-80
2023/04/27 00:12:36;;;;;;;4.53;3.87;;;;;;;;;;5113840;28;20284;-79
2023/04/27 00:15:04;;;;;;;5.53;4.03;;;;;;;;;;5113191;28;20658;-79
2023/04/27 00:17:31;;;;;;;5.87;4.33;;;;;;;;;;5113939;28;20299;-80
2023/04/27 00:19:59;;;;;;;6.63;4.37;;;;;;;;;;5113797;28;20221;-79
2023/04/27 00:22:26;;;;;;;5.47;3.97;;;;;;;;;;5113778;28;20250;-79
2023/04/27 00:24:53;;;;;;;6.60;4.20;;;;;;;;;;5113972;28;20240;-79
2023/04/27 00:27:22;;;;;;;5.93;4.50;;;;;;;;;;5113826;28;20277;-79
2023/04/27 00:29:49;;;;;;;4.70;4.20;;;;;;;;;;5113358;28;20293;-79
2023/04/27 00:32:16;;;;;;;5.70;4.03;;;;;;;;;;5113860;28;20204;-80
2023/04/27 00:34:43;;;;;;;6.17;4.00;;;;;;;;;;5113668;28;20301;-79
2023/04/27 00:37:11;;;;;;;5.60;4.20;;;;;;;;;;5113421;28;20284;-77
2023/04/27 00:39:38;;;;;;;6.63;3.93;;;;;;;;;;5113400;28;20395;-79
2023/04/27 00:42:10;;;;;;;5.23;4.10;;;;;;;;;;5113410;28;20320;-78
2023/04/27 00:44:38;;;;;;;4.63;3.87;;;;;;;;;;5112210;28;20673;-79
2023/04/27 00:47:06;;;;;;;4.40;4.00;;;;;;;;;;5113483;28;20280;-79
2023/04/27 00:49:33;;;;;;;5.97;4.27;;;;;;;;;;5113244;28;20217;-79
2023/04/27 00:52:00;;;;;;;4.83;4.03;;;;;;;;;;5113178;28;20288;-80
2023/04/27 00:54:28;;;;;;;6.77;4.10;;;;;;;;;;5113352;28;20293;-79
2023/04/27 00:56:55;;;;;;;5.77;4.33;;;;;;;;;;5112976;28;20281;-80
2023/04/27 00:59:22;;;;;;;7.73;4.50;;;;;;;;;;5112702;28;20198;-78
2023/04/27 01:01:51;;;;;;;4.97;3.77;;;;;;;;;;5112821;28;20194;-79
2023/04/27 01:04:18;;;;;;;6.63;4.73;;;;;;;;;;5112820;28;20292;-79
2023/04/27 01:06:45;;;;;;;5.33;4.33;;;;;;;;;;5112863;28;20194;-79
2023/04/27 01:09:12;;;;;;;7.63;4.37;;;;;;;;;;5113122;28;20213;-79
2023/04/27 01:11:40;;;;;;;7.73;4.60;;;;;;;;;;5112561;28;20207;-79
2023/04/27 01:14:07;;;;;;;8.90;4.70;;;;;;;;;;5113076;28;20232;-79
2023/04/27 01:16:36;;;;;;;6.67;4.47;;;;;;;;;;5112834;28;20272;-79
2023/04/27 01:19:04;;;;;;;7.20;4.70;;;;;;;;;;5112690;28;20197;-79
2023/04/27 01:21:31;;;;;;;5.83;4.53;;;;;;;;;;5112554;28;20316;-79
2023/04/27 01:24:00;;;;;;;5.07;4.27;;;;;;;;;;5112953;28;20286;-78
2023/04/27 01:26:27;;;;;;;6.77;4.30;;;;;;;;;;5112367;28;20466;-79
2023/04/27 01:28:54;;;;;;;5.60;4.20;;;;;;;;;;5112550;28;20312;-79
2023/04/27 01:31:21;;;;;;;5.57;3.90;;;;;;;;;;5112409;28;20670;-79
2023/04/27 01:33:49;;;;;;;5.73;4.40;;;;;;;;;;5112588;28;20628;-79
2023/04/27 01:36:16;;;;;;;6.57;4.33;;;;;;;;;;5112402;28;20295;-79
2023/04/27 01:38:43;;;;;;;6.83;4.27;;;;;;;;;;5112131;28;20232;-79
2023/04/27 01:41:12;;;;;;;4.93;4.03;;;;;;;;;;5111826;28;20264;-78
2023/04/27 01:43:39;;;;;;;5.80;4.00;;;;;;;;;;5112371;28;20272;-79
2023/04/27 01:46:07;;;;;;;4.87;4.07;;;;;;;;;;5111589;28;20235;-78
2023/04/27 01:48:34;;;;;;;6.17;4.30;;;;;;;;;;5112576;28;20205;-79
2023/04/27 01:51:02;;;;;;;5.77;4.33;;;;;;;;;;5112248;28;20639;-78
2023/04/27 01:53:29;;;;;;;6.73;4.23;;;;;;;;;;5112140;28;20818;-79
2023/04/27 01:55:58;;;;;;;5.73;4.40;;;;;;;;;;5110863;28;20227;-78
2023/04/27 01:58:27;;;;;;;6.50;4.60;;;;;;;;;;5112366;28;20211;-79
2023/04/27 02:00:54;;;;;;;7.43;5.10;;;;;;;;;;5111917;28;20327;-79
2023/04/27 02:03:21;;;;;;;7.00;4.80;;;;;;;;;;5112077;28;20279;-79
2023/04/27 02:05:48;;;;;;;8.67;5.20;;;;;;;;;;5112059;28;20193;-80
2023/04/27 02:08:15;;;;;;;7.57;4.73;;;;;;;;;;5112012;28;20292;-79
2023/04/27 02:10:43;;;;;;;8.40;5.63;;;;;;;;;;5111199;28;20228;-79
2023/04/27 02:13:10;;;;;;;16.40;5.70;;;;;;;;;;5112263;28;20228;-79
2023/04/27 02:15:38;;;;;;;16.63;5.73;;;;;;;;;;5111983;28;20280;-79
2023/04/27 02:18:06;;;;;;;11.50;5.47;;;;;;;;;;5111918;28;20229;-78
2023/04/27 02:20:33;;;;;;;11.67;5.77;;;;;;;;;;5111945;28;20308;-79
2023/04/27 02:23:01;;;;;;;16.33;5.47;;;;;;;;;;5111661;28;20315;-79
2023/04/27 02:25:28;;;;;;;15.70;5.87;;;;;;;;;;5111424;28;20194;-78
2023/04/27 02:27:55;;;;;;;15.33;6.20;;;;;;;;;;5103479;28;20193;-79
2023/04/27 02:30:22;;;;;;;30.90;6.77;;;;;;;;;;5091470;28;20314;-78
2023/04/27 02:32:50;;;;;;;11.77;6.00;;;;;;;;;;5091422;28;20198;-79
2023/04/27 02:35:18;;;;;;;36.73;6.63;;;;;;;;;;5091579;28;20623;-79
2023/04/27 02:37:45;;;;;;;26.17;5.90;;;;;;;;;;5091356;28;20794;-80
2023/04/27 02:40:12;;;;;;;24.03;6.73;;;;;;;;;;5090898;28;20194;-79
2023/04/27 02:42:40;;;;;;;17.60;6.37;;;;;;;;;;5091217;28;20672;-78
2023/04/27 02:45:08;;;;;;;20.27;6.67;;;;;;;;;;5091370;28;20190;-79
2023/04/27 02:47:35;;;;;;;12.17;6.10;;;;;;;;;;5091510;28;20288;-79
2023/04/27 02:50:04;;;;;;;17.73;6.77;;;;;;;;;;5091275;28;20286;-79
2023/04/27 02:52:31;;;;;;;14.40;6.73;;;;;;;;;;5091281;28;20208;-79
2023/04/27 02:54:58;;;;;;;52.67;7.47;;;;;;;;;;5090593;28;20194;-78
2023/04/27 02:57:26;;;;;;;38.00;7.00;;;;;;;;;;5091550;28;20200;-79
2023/04/27 02:59:53;;;;;;;68.07;6.40;;;;;;;;;;5091334;28;20197;-79
2023/04/27 03:02:20;;;;;;;53.70;6.30;;;;;;;;;;5090932;28;20325;-79
2023/04/27 03:04:48;;;;;;;62.47;6.93;;;;;;;;;;5090796;28;20225;-78
2023/04/27 03:07:16;;;;;;;57.97;6.43;;;;;;;;;;5091609;28;20787;-78
2023/04/27 03:09:43;;;;;;;40.93;5.20;;;;;;;;;;5094452;28;20281;-79
2023/04/27 03:12:10;;;;;;;38.57;4.93;;;;;;;;;;5094677;28;20284;-78
2023/04/27 03:14:38;;;;;;;50.90;5.37;;;;;;;;;;5110323;28;20229;-78
2023/04/27 03:17:05;;;;;;;42.27;4.70;;;;;;;;;;5115035;28;20709;-80
2023/04/27 03:19:32;;;;;;;38.10;5.83;;;;;;;;;;5114755;28;20738;-79
2023/04/27 03:21:59;;;;;;;35.60;5.57;;;;;;;;;;5114479;28;20649;-80
2023/04/27 03:24:28;;;;;;;33.40;5.10;;;;;;;;;;5114997;28;20199;-80
2023/04/27 03:26:55;;;;;;;34.50;4.67;;;;;;;;;;5114801;28;20233;-79
2023/04/27 03:29:22;;;;;;;38.53;5.90;;;;;;;;;;5114639;28;20607;-80
2023/04/27 03:31:49;;;;;;;16.23;4.33;;;;;;;;;;5114660;28;20638;-79
2023/04/27 03:34:17;;;;;;;15.73;4.07;;;;;;;;;;5114844;28;20228;-79
2023/04/27 03:36:44;;;;;;;17.73;4.10;;;;;;;;;;5114591;28;20227;-80
2023/04/27 03:39:11;;;;;;;32.03;4.23;;;;;;;;;;5114634;28;20220;-80
2023/04/27 03:41:40;;;;;;;22.63;3.87;;;;;;;;;;5114456;28;20705;-80
2023/04/27 03:44:07;;;;;;;14.20;3.87;;;;;;;;;;5114778;28;20285;-80
2023/04/27 03:46:34;;;;;;;21.93;4.07;;;;;;;;;;5114336;28;20285;-79
2023/04/27 03:49:02;;;;;;;26.33;4.00;;;;;;;;;;5114381;28;20243;-80
2023/04/27 03:51:30;;;;;;;25.97;4.47;;;;;;;;;;5114017;28;20299;-79
2023/04/27 03:53:58;;;;;;;13.50;4.00;;;;;;;;;;5114398;28;20201;-77
2023/04/27 03:56:25;;;;;;;36.10;4.00;;;;;;;;;;5114531;28;20288;-79
2023/04/27 03:58:53;;;;;;;25.30;3.07;;;;;;;;;;5114344;28;20283;-80
2023/04/27 04:01:21;;;;;;;27.10;3.57;;;;;;;;;;5114241;28;20233;-80
2023/04/27 04:03:49;;;;;;;43.83;4.17;;;;;;;;;;5114123;28;20197;-80
2023/04/27 04:06:16;;;;;;;34.27;3.40;;;;;;;;;;5113686;28;20293;-80
2023/04/27 04:08:43;;;;;;;33.03;4.00;;;;;;;;;;5114001;28;20280;-80
2023/04/27 04:11:10;;;;;;;19.97;3.63;;;;;;;;;;5114222;28;20673;-79
2023/04/27 04:13:38;;;;;;;13.27;3.50;;;;;;;;;;5113829;28;20198;-79
2023/04/27 04:16:07;;;;;;;29.13;4.20;;;;;;;;;;5113900;28;20296;-80
2023/04/27 04:18:34;;;;;;;26.83;4.23;;;;;;;;;;5113464;28;20220;-80
2023/04/27 04:21:02;;;;;;;33.50;4.60;;;;;;;;;;5113036;28;20765;-78
2023/04/27 04:23:29;;;;;;;16.77;3.93;;;;;;;;;;5113926;28;20313;-80
2023/04/27 04:25:56;;;;;;;27.97;3.63;;;;;;;;;;5113906;28;20220;-78
2023/04/27 04:28:23;;;;;;;21.00;3.77;;;;;;;;;;5113888;28;20571;-79
2023/04/27 04:30:51;;;;;;;16.53;3.67;;;;;;;;;;5114197;28;20293;-78
2023/04/27 04:33:20;;;;;;;10.43;3.40;;;;;;;;;;5113359;28;20198;-78
2023/04/27 04:35:47;;;;;;;20.13;3.93;;;;;;;;;;5113579;28;20200;-77
2023/04/27 04:38:15;;;;;;;25.93;3.83;;;;;;;;;;5113417;28;20219;-77
2023/04/27 04:40:42;;;;;;;31.77;3.70;;;;;;;;;;5113201;28;20689;-78
2023/04/27 04:43:10;;;;;;;30.43;3.70;;;;;;;;;;5113222;28;20654;-79
2023/04/27 04:45:37;;;;;;;32.57;3.90;;;;;;;;;;5113695;28;20283;-78
2023/04/27 04:48:04;;;;;;;24.93;3.60;;;;;;;;;;5112954;28;20196;-79
2023/04/27 04:50:32;;;;;;;24.90;4.10;;;;;;;;;;5113022;28;20292;-79
2023/04/27 04:53:00;;;;;;;35.13;4.10;;;;;;;;;;5113466;28;20629;-79
2023/04/27 04:55:27;;;;;;;25.13;3.40;;;;;;;;;;5113113;28;20197;-78
2023/04/27 04:57:54;;;;;;;11.33;3.93;;;;;;;;;;5113101;28;20295;-77
2023/04/27 05:00:22;;;;;;;31.87;3.40;;;;;;;;;;5113102;28;20204;-77
2023/04/27 05:02:49;;;;;;;13.37;3.83;;;;;;;;;;5113179;28;20319;-79
2023/04/27 05:05:17;;;;;;;20.37;3.97;;;;;;;;;;5112568;28;20565;-77
2023/04/27 05:07:45;;;;;;;13.43;4.53;;;;;;;;;;5113066;28;20284;-80
2023/04/27 05:10:12;;;;;;;30.80;6.53;;;;;;;;;;5112815;28;20205;-79
2023/04/27 05:12:39;;;;;;;28.03;7.10;;;;;;;;;;5113206;28;20207;-80
2023/04/27 05:15:07;;;;;;;47.73;7.60;;;;;;;;;;5112980;28;20288;-80
2023/04/27 05:17:34;;;;;;;25.07;6.93;;;;;;;;;;5112738;28;20770;-80
2023/04/27 05:20:03;;;;;;;25.50;5.67;;;;;;;;;;5112411;28;20721;-80
2023/04/27 05:22:30;;;;;;;24.30;5.50;;;;;;;;;;5112328;28;20256;-80
2023/04/27 05:24:59;;;;;;;35.17;5.20;;;;;;;;;;5112896;28;20289;-80
2023/04/27 05:27:26;;;;;;;24.90;4.90;;;;;;;;;;5112386;28;20197;-80
2023/04/27 05:29:53;;;;;;;23.17;5.27;;;;;;;;;;5112395;28;20293;-78
2023/04/27 05:32:20;;;;;;;55.20;5.30;;;;;;;;;;5112845;28;20198;-79
2023/04/27 05:34:47;;;;;;;26.07;4.90;;;;;;;;;;5112317;28;20232;-80
2023/04/27 05:37:15;;;;;;;62.80;5.90;;;;;;;;;;5112291;28;20292;-79
2023/04/27 05:39:42;;;;;;;32.73;5.37;;;;;;;;;;5112255;28;20203;-80
2023/04/27 05:42:10;;;;;;;30.47;4.87;;;;;;;;;;5112315;28;20243;-80
2023/04/27 05:44:37;;;;;;;18.90;4.43;;;;;;;;;;5112547;28;20190;-80
2023/04/27 05:47:05;;;;;;;16.90;4.23;;;;;;;;;;5111920;28;20221;-80
2023/04/27 05:49:32;;;;;;;16.60;4.50;;;;;;;;;;5112157;28;20212;-79
2023/04/27 05:52:00;;;;;;;8.43;4.10;;;;;;;;;;5111960;28;20200;-80
2023/04/27 05:54:27;;;;;;;30.07;4.47;;;;;;;;;;5112326;28;20203;-80
2023/04/27 05:56:54;;;;;;;44.13;4.77;;;;;;;;;;5112302;28;20217;-77
2023/04/27 05:59:23;;;;;;;20.83;4.10;;;;;;;;;;5112091;28;20569;-80
2023/04/27 06:01:50;;;;;;;21.90;3.87;;;;;;;;;;5111659;28;20308;-79
2023/04/27 06:04:17;;;;;;;33.30;4.50;;;;;;;;;;5111792;28;20255;-80
2023/04/27 06:06:44;;;;;;;28.20;4.60;;;;;;;;;;5111990;28;20289;-79
2023/04/27 06:09:12;;;;;;;11.70;4.37;;;;;;;;;;5111884;28;20677;-80
2023/04/27 06:11:39;;;;;;;15.33;4.77;;;;;;;;;;5112141;28;20297;-80
2023/04/27 06:14:06;;;;;;;22.80;5.07;;;;;;;;;;5111735;28;20208;-80
2023/04/27 06:16:35;;;;;;;15.63;5.13;;;;;;;;;;5111106;28;20229;-80
2023/04/27 06:19:02;;;;;;;58.93;6.00;;;;;;;;;;5111693;28;20592;-77
2023/04/27 06:21:32;;;;;;;47.43;6.40;;;;;;;;;;5112010;28;20218;-79
2023/04/27 06:23:59;;;;;;;20.13;5.60;;;;;;;;;;5111848;28;20733;-79
2023/04/27 06:26:27;;;;;;;30.83;6.13;;;;;;;;;;5111953;28;20198;-80
2023/04/27 06:28:55;;;;;;;18.07;6.23;;;;;;;;;;5111699;28;20225;-81
2023/04/27 06:31:22;;;;;;;14.20;5.37;;;;;;;;;;5111435;28;20217;-79
2023/04/27 06:33:50;;;;;;;9.33;4.67;;;;;;;;;;5111987;28;20284;-79
2023/04/27 06:36:18;;;;;;;7.47;3.93;;;;;;;;;;5111878;28;20221;-80
2023/04/27 06:38:45;;;;;;;6.27;3.70;;;;;;;;;;5111579;28;20258;-78
2023/04/27 06:41:12;;;;;;;5.87;3.67;;;;;;;;;;5111768;28;20285;-80
2023/04/27 06:43:39;;;;;;;7.30;3.70;;;;;;;;;;5114670;28;20260;-79
2023/04/27 06:46:07;;;;;;;6.67;4.20;;;;;;;;;;5115122;28;20194;-79
2023/04/27 06:48:34;;;;;;;7.27;4.47;;;;;;;;;;5115369;28;20284;-80
2023/04/27 06:51:02;;;;;;;8.83;4.13;;;;;;;;;;5115500;28;20655;-80
2023/04/27 06:53:31;;;;;;;7.50;4.53;;;;;;;;;;5115871;28;20237;-80
2023/04/27 06:55:58;;;;;;;9.87;5.77;;;;;;;;;;5115525;28;20200;-79
2023/04/27 06:58:25;;;;;;;7.90;5.07;;;;;;;;;;5115495;28;20300;-80
2023/04/27 07:00:53;;;;;;;10.60;6.47;;;;;;;;;;5115100;28;20194;-79
2023/04/27 07:03:21;;;;;;;11.33;6.87;;;;;;;;;;5115763;28;20411;-79
2023/04/27 07:05:50;;;;;;;13.90;6.43;;;;;;;;;;5115443;28;20197;-81
2023/04/27 07:08:18;;;;;;;8.83;5.97;;;;;;;;;;5114996;28;20562;-80
2023/04/27 07:10:46;;;;;;;12.77;6.27;;;;;;;;;;5115111;28;20285;-80
2023/04/27 07:13:13;;;;;;;9.50;5.83;;;;;;;;;;5115081;28;20221;-79
2023/04/27 07:15:40;;;;;;;6.90;5.37;;;;;;;;;;5115212;28;20221;-79
2023/04/27 07:18:08;;;;;;;8.13;5.50;;;;;;;;;;5114918;28;20576;-79
2023/04/27 07:20:35;;;;;;;9.07;5.10;;;;;;;;;;5115103;28;20289;-79
2023/04/27 07:23:02;;;;;;;9.07;5.03;;;;;;;;;;5115324;28;20702;-79
2023/04/27 07:25:31;;;;;;;6.57;5.03;;;;;;;;;;5114674;28;20284;-80
2023/04/27 07:27:59;;;;;;;6.70;5.03;;;;;;;;;;5114794;28;20200;-79
2023/04/27 07:30:29;;;;;;;8.13;5.20;;;;;;;;;;5114571;28;20217;-79
2023/04/27 07:32:56;;;;;;;10.57;5.13;;;;;;;;;;5114817;28;20726;-80
2023/04/27 07:35:24;;;;;;;6.80;4.50;;;;;;;;;;5115057;28;20198;-80
2023/04/27 07:37:51;;;;;;;5.57;4.70;;;;;;;;;;5114819;28;20288;-79
2023/04/27 07:40:18;;;;;;;6.40;5.00;;;;;;;;;;5114836;28;20204;-79
2023/04/27 07:42:47;;;;;;;6.13;5.20;;;;;;;;;;5114253;28;20234;-79
2023/04/27 07:45:16;;;;;;;7.30;5.00;;;;;;;;;;5113961;28;20564;-79
2023/04/27 07:47:43;;;;;;;6.97;5.17;;;;;;;;;;5114662;28;20561;-79
2023/04/27 07:50:11;;;;;;;6.70;5.17;;;;;;;;;;5114640;28;20202;-79
2023/04/27 07:52:38;;;;;;;6.30;4.40;;;;;;;;;;5114521;28;20285;-79
2023/04/27 07:55:07;;;;;;;6.30;4.80;;;;;;;;;;5113274;28;20251;-79
2023/04/27 07:57:34;;;;;;;5.23;4.10;;;;;;;;;;5114749;28;20567;-80
2023/04/27 08:00:04;;;;;;;5.00;4.30;;;;;;;;;;5113978;28;20280;-79
2023/04/27 08:02:33;;;;;;;5.70;4.00;;;;;;;;;;5114244;28;20304;-80
2023/04/27 08:05:01;;;;;;;6.53;3.97;;;;;;;;;;5114716;28;20212;-80
2023/04/27 08:07:28;;;;;;;5.77;3.87;;;;;;;;;;5114035;28;20198;-80
2023/04/27 08:09:55;;;;;;;5.83;4.07;;;;;;;;;;5114099;28;20296;-79
2023/04/27 08:12:22;;;;;;;4.90;3.83;;;;;;;;;;5113429;28;20220;-81
2023/04/27 08:14:50;;;;;;;4.67;4.00;;;;;;;;;;5113782;28;20201;-80
2023/04/27 08:17:20;;;;;;;5.27;4.10;;;;;;;;;;5114017;28;20289;-80
2023/04/27 08:19:47;;;;;;;6.37;3.73;;;;;;;;;;5113974;28;20202;-79
2023/04/27 08:22:14;;;;;;;6.80;4.23;;;;;;;;;;5114371;28;20321;-79
2023/04/27 08:24:41;;;;;;;5.60;4.10;;;;;;;;;;5113612;28;20202;-80
2023/04/27 08:27:09;;;;;;;5.70;4.20;;;;;;;;;;5113876;28;20194;-78
2023/04/27 08:29:36;;;;;;;6.43;4.70;;;;;;;;;;5114084;28;20249;-80
2023/04/27 08:32:04;;;;;;;6.03;4.30;;;;;;;;;;5113866;28;20284;-80
2023/04/27 08:34:33;;;;;;;6.37;4.60;;;;;;;;;;5113586;28;20646;-80
2023/04/27 08:37:01;;;;;;;7.67;4.90;;;;;;;;;;5113366;28;20198;-80
2023/04/27 08:39:28;;;;;;;7.07;4.37;;;;;;;;;;5113601;28;20201;-79
2023/04/27 08:41:55;;;;;;;5.50;4.27;;;;;;;;;;5113030;28;20226;-80
2023/04/27 08:44:23;;;;;;;5.70;4.20;;;;;;;;;;5113308;28;20189;-80
2023/04/27 08:46:51;;;;;;;7.97;4.77;;;;;;;;;;5113678;28;20200;-80
2023/04/27 08:49:19;;;;;;;5.80;4.10;;;;;;;;;;5113431;28;20289;-79
2023/04/27 08:51:48;;;;;;;5.77;4.33;;;;;;;;;;5113299;28;20189;-80
2023/04/27 08:54:15;;;;;;;5.87;4.37;;;;;;;;;;5113216;28;20233;-80
2023/04/27 08:56:42;;;;;;;8.00;4.73;;;;;;;;;;5112745;28;20284;-80
2023/04/27 08:59:14;;;;;;;7.00;4.97;;;;;;;;;;5113176;28;20671;-80
2023/04/27 09:01:44;;;;;;;5.80;4.40;;;;;;;;;;5113132;28;20189;-79
2023/04/27 09:04:11;;;;;;;6.17;4.80;;;;;;;;;;5113019;28;20229;-80
2023/04/27 09:06:39;;;;;;;6.80;4.97;;;;;;;;;;5113143;28;20310;-79
2023/04/27 09:09:07;;;;;;;7.40;5.03;;;;;;;;;;5112730;28;20757;-80
2023/04/27 09:11:35;;;;;;;7.27;4.97;;;;;;;;;;5112526;28;20662;-80
2023/04/27 09:14:03;;;;;;;6.47;5.03;;;;;;;;;;5113189;28;20290;-81
2023/04/27 09:16:31;;;;;;;6.90;4.63;;;;;;;;;;5112966;28;20284;-81
2023/04/27 09:18:59;;;;;;;6.13;5.13;;;;;;;;;;5112758;28;20204;-79
2023/04/27 09:21:26;;;;;;;5.13;4.60;;;;;;;;;;5113042;28;20274;-80
2023/04/27 09:23:54;;;;;;;6.40;4.83;;;;;;;;;;5112547;28;20229;-80
2023/04/27 09:26:23;;;;;;;7.03;4.90;;;;;;;;;;5112370;28;20198;-80
2023/04/27 09:28:51;;;;;;;9.97;5.00;;;;;;;;;;5112800;28;20293;-79
2023/04/27 09:31:19;;;;;;;6.90;5.10;;;;;;;;;;5112587;28;20285;-80
2023/04/27 09:33:47;;;;;;;7.13;4.70;;;;;;;;;;5112621;28;20193;-81
2023/04/27 09:36:14;;;;;;;6.27;5.10;;;;;;;;;;5112623;28;20193;-81
2023/04/27 09:38:41;;;;;;;6.70;4.93;;;;;;;;;;5112178;28;20201;-80
2023/04/27 09:41:09;;;;;;;5.87;5.00;;;;;;;;;;5112219;28;20276;-79
2023/04/27 09:43:40;;;;;;;7.67;5.47;;;;;;;;;;5111999;28;20288;-81
2023/04/27 09:46:07;;;;;;;8.67;5.87;;;;;;;;;;5112338;28;20194;-80
2023/04/27 09:48:34;;;;;;;7.10;5.93;;;;;;;;;;5112211;28;20236;-80
2023/04/27 09:51:01;;;;;;;6.63;5.80;;;;;;;;;;5112446;28;20292;-80
2023/04/27 09:53:30;;;;;;;7.77;6.10;;;;;;;;;;5112181;28;20217;-80
2023/04/27 09:56:03;;;;;;;7.43;6.27;;;;;;;;;;5112208;28;20286;-81
2023/04/27 09:58:44;;;;;;;8.00;5.97;;;;;;;;;;5112296;28;20250;-80
2023/04/27 10:01:16;;;;;;;8.63;6.00;;;;;;;;;;5112154;28;20193;-80
2023/04/27 10:03:51;;;;;;;7.30;5.93;;;;;;;;;;5111990;28;20674;-80
2023/04/27 10:06:36;;;;;;;7.67;6.00;;;;;;;;;;5112234;28;20228;-79
2023/04/27 10:09:05;;;;;;;6.60;5.90;;;;;;;;;;5111493;28;20645;-79
2023/04/27 10:11:39;;;;;;;7.40;6.63;;;;;;;;;;5112394;28;20259;-80
2023/04/27 10:14:09;;;;;;;6.87;6.17;;;;;;;;;;5111798;28;20207;-80
2023/04/27 10:16:45;;;;;;;7.43;6.47;;;;;;;;;;5111371;28;20197;-80
2023/04/27 10:19:12;;;;;;;7.17;6.20;;;;;;;;;;5112009;28;20197;-79
2023/04/27 10:21:51;;;;;;;7.00;6.30;;;;;;;;;;5112011;28;20197;-80
2023/04/27 10:24:18;;;;;;;7.80;6.40;;;;;;;;;;5111764;28;20767;-80
2023/04/27 10:26:47;;;;;;;7.80;6.27;;;;;;;;;;5111717;28;20681;-80
2023/04/27 10:29:17;;;;;;;8.57;6.13;;;;;;;;;;5111617;28;20661;-79
2023/04/27 10:31:44;;;;;;;7.87;6.77;;;;;;;;;;5111908;28;20193;-80
2023/04/27 10:34:16;;;;;;;9.40;6.83;;;;;;;;;;5111822;28;20289;-79
2023/04/27 10:36:43;;;;;;;7.77;6.90;;;;;;;;;;5111942;28;20302;-80
2023/04/27 10:39:21;;;;;;;7.27;6.40;;;;;;;;;;5111403;28;20661;-80
2023/04/27 10:41:53;;;;;;;7.83;7.00;;;;;;;;;;5111407;28;20268;-79
2023/04/27 10:44:25;;;;;;;6.93;6.23;;;;;;;;;;5111631;28;20225;-80
2023/04/27 10:46:53;;;;;;;8.57;6.97;;;;;;;;;;5111773;28;20190;-79
2023/04/27 10:49:20;;;;;;;8.60;7.13;;;;;;;;;;5111732;28;20292;-79
2023/04/27 10:51:47;;;;;;;8.60;7.70;;;;;;;;;;5111257;28;20217;-79
2023/04/27 10:54:14;;;;;;;8.80;7.83;;;;;;;;;;5111558;28;20284;-80
2023/04/27 10:56:42;;;;;;;8.80;7.83;;;;;;;;;;5111471;28;20640;-81
2023/04/27 10:59:09;;;;;;;9.17;8.00;;;;;;;;;;5111023;28;20280;-80
2023/04/27 11:01:38;;;;;;;8.73;7.80;;;;;;;;;;5111673;28;20190;-80
2023/04/27 11:04:05;;;;;;;10.43;8.60;;;;;;;;;;5111575;28;20249;-80
2023/04/27 11:06:33;;;;;;;10.47;8.30;;;;;;;;;;5110812;28;20568;-80
2023/04/27 11:09:00;;;;;;;11.07;9.53;;;;;;;;;;5111268;28;20666;-80
2023/04/27 11:11:27;;;;;;;10.77;9.00;;;;;;;;;;5111404;28;20301;-80
2023/04/27 11:13:55;;;;;;;11.33;9.40;;;;;;;;;;5111206;28;20655;-79
2023/04/27 11:16:23;;;;;;;10.87;9.50;;;;;;;;;;5111737;28;20656;-79
2023/04/27 11:18:52;;;;;;;11.33;9.53;;;;;;;;;;5111097;28;20213;-79
2023/04/27 11:21:20;;;;;;;11.70;10.33;;;;;;;;;;5110792;28;20660;-79
2023/04/27 11:23:48;;;;;;;10.67;9.53;;;;;;;;;;5111423;28;20221;-79
2023/04/27 11:26:16;;;;;;;13.13;11.00;;;;;;;;;;5111490;28;20284;-79
2023/04/27 11:28:44;;;;;;;13.10;10.77;;;;;;;;;;5112917;28;20280;-79
2023/04/27 11:31:11;;;;;;;12.73;11.43;;;;;;;;;;5114841;28;20665;-80
2023/04/27 11:33:39;;;;;;;13.23;11.83;;;;;;;;;;5114636;28;20766;-80
2023/04/27 11:36:18;;;;;;;13.27;11.87;;;;;;;;;;5114706;28;20202;-80
2023/04/27 11:38:45;;;;;;;13.67;11.47;;;;;;;;;;5114840;28;20745;-80
2023/04/27 11:41:12;;;;;;;14.60;12.93;;;;;;;;;;5114544;28;20328;-80
2023/04/27 11:43:42;;;;;;;16.30;13.17;;;;;;;;;;5114562;28;20233;-79
2023/04/27 11:46:11;;;;;;;13.93;12.53;;;;;;;;;;5114365;28;20670;-79
2023/04/27 11:48:38;;;;;;;17.13;14.57;;;;;;;;;;5114491;28;20658;-79
2023/04/27 11:51:06;;;;;;;16.10;14.03;;;;;;;;;;5114567;28;20229;-80
2023/04/27 11:53:35;;;;;;;15.37;13.17;;;;;;;;;;5114424;28;21172;-79
2023/04/27 11:56:04;;;;;;;15.53;13.23;;;;;;;;;;5114360;28;20548;-79
2023/04/27 11:58:33;;;;;;;15.30;13.50;;;;;;;;;;5114195;28;20679;-80
2023/04/27 12:01:00;;;;;;;15.53;13.67;;;;;;;;;;5114689;28;20229;-80
2023/04/27 12:03:29;;;;;;;15.50;13.30;;;;;;;;;;5114342;28;20325;-79
2023/04/27 12:05:56;;;;;;;14.53;12.40;;;;;;;;;;5113799;28;20194;-80
2023/04/27 12:08:24;;;;;;;14.10;11.53;;;;;;;;;;5114004;28;20277;-80
2023/04/27 12:10:52;;;;;;;14.63;11.50;;;;;;;;;;5113897;28;20200;-80
2023/04/27 12:13:19;;;;;;;12.47;11.17;;;;;;;;;;5114143;28;20224;-80
2023/04/27 12:15:47;;;;;;;12.30;10.57;;;;;;;;;;5114171;28;20233;-80
2023/04/27 12:18:14;;;;;;;11.03;8.90;;;;;;;;;;5114065;28;20273;-80
2023/04/27 12:20:41;;;;;;;10.30;8.50;;;;;;;;;;5113692;27;20658;-79
2023/04/27 12:23:08;;;;;;;9.13;7.90;;;;;;;;;;5114259;28;20246;-79
2023/04/27 12:25:36;;;;;;;8.83;7.93;;;;;;;;;;5113960;28;20204;-80
2023/04/27 12:28:05;;;;;;;7.07;6.37;;;;;;;;;;5113982;28;20235;-79
2023/04/27 12:30:32;;;;;;;7.27;6.53;;;;;;;;;;5113669;28;20662;-79
2023/04/27 12:33:00;;;;;;;8.17;7.07;;;;;;;;;;5113958;28;20221;-80
2023/04/27 12:35:30;;;;;;;6.30;5.67;;;;;;;;;;5113194;28;20285;-80
2023/04/27 12:37:57;;;;;;;6.90;6.20;;;;;;;;;;5113905;28;20197;-80
2023/04/27 12:40:24;;;;;;;7.00;6.30;;;;;;;;;;5112781;28;20225;-80
2023/04/27 12:42:52;;;;;;;6.87;5.93;;;;;;;;;;5113616;28;20714;-80
2023/04/27 12:45:20;;;;;;;7.00;6.30;;;;;;;;;;5113309;28;20256;-80
2023/04/27 12:47:47;;;;;;;7.33;6.63;;;;;;;;;;5113200;28;20193;-80
2023/04/27 12:50:15;;;;;;;7.07;6.37;;;;;;;;;;5113440;28;20284;-79
2023/04/27 12:52:42;;;;;;;6.53;5.93;;;;;;;;;;5113180;28;20201;-81
2023/04/27 12:55:10;;;;;;;7.27;6.57;;;;;;;;;;5113273;28;20206;-80
2023/04/27 12:57:37;;;;;;;7.80;7.00;;;;;;;;;;5113258;28;20218;-80
2023/04/27 13:00:08;;;;;;;7.50;6.80;;;;;;;;;;5113460;28;20190;-80
2023/04/27 13:02:37;;;;;;;8.30;7.40;;;;;;;;;;5112483;28;20702;-80
2023/04/27 13:05:06;;;;;;;7.47;6.77;;;;;;;;;;5113121;28;20260;-80
2023/04/27 13:07:34;;;;;;;7.80;7.00;;;;;;;;;;5113217;28;20217;-80
2023/04/27 13:10:01;;;;;;;7.20;6.50;;;;;;;;;;5112885;28;20197;-80
2023/04/27 13:12:29;;;;;;;8.13;6.33;;;;;;;;;;5113079;28;20210;-80
2023/04/27 13:14:56;;;;;;;6.63;6.03;;;;;;;;;;5112714;28;20779;-79
2023/04/27 13:17:23;;;;;;;6.70;6.10;;;;;;;;;;5112244;28;20678;-80
2023/04/27 13:19:51;;;;;;;6.23;5.60;;;;;;;;;;5112888;28;20285;-79
2023/04/27 13:22:19;;;;;;;5.80;5.30;;;;;;;;;;5112977;28;20289;-80
2023/04/27 13:24:46;;;;;;;6.30;5.70;;;;;;;;;;5112938;28;20605;-79
2023/04/27 13:27:15;;;;;;;5.60;5.10;;;;;;;;;;5112343;28;20281;-79
2023/04/27 13:29:43;;;;;;;5.00;4.40;;;;;;;;;;5113125;28;20194;-80
2023/04/27 13:32:10;;;;;;;6.30;5.40;;;;;;;;;;5112038;28;20285;-79
2023/04/27 13:34:37;;;;;;;6.17;5.67;;;;;;;;;;5112991;28;20228;-80
2023/04/27 13:37:06;;;;;;;5.53;5.07;;;;;;;;;;5112566;28;20247;-80
2023/04/27 13:39:33;;;;;;;4.43;4.13;;;;;;;;;;5112597;28;20197;-80
2023/04/27 13:42:00;;;;;;;4.50;4.10;;;;;;;;;;5112201;28;20267;-79
2023/04/27 13:44:28;;;;;;;4.10;3.80;;;;;;;;;;5112380;28;20274;-81
2023/04/27 13:46:55;;;;;;;4.13;3.83;;;;;;;;;;5111629;28;20649;-80
2023/04/27 13:49:22;;;;;;;4.00;3.60;;;;;;;;;;5112415;28;20229;-80
2023/04/27 13:51:49;;;;;;;4.23;3.87;;;;;;;;;;5111106;28;20296;-80
2023/04/27 13:54:18;;;;;;;3.90;3.60;;;;;;;;;;5112471;28;20194;-80
2023/04/27 13:56:45;;;;;;;4.20;3.90;;;;;;;;;;5112140;28;20225;-79
2023/04/27 13:59:12;;;;;;;4.60;4.20;;;;;;;;;;5111985;28;20293;-78
2023/04/27 14:01:39;;;;;;;4.60;4.20;;;;;;;;;;5111874;28;20673;-79
2023/04/27 14:04:07;;;;;;;4.97;4.47;;;;;;;;;;5111751;28;20780;-80
2023/04/27 14:06:34;;;;;;;4.90;4.50;;;;;;;;;;5111979;28;20205;-80
2023/04/27 14:09:02;;;;;;;5.40;4.93;;;;;;;;;;5112051;28;20225;-80
2023/04/27 14:11:31;;;;;;;4.70;4.30;;;;;;;;;;5112150;28;20194;-79
2023/04/27 14:13:58;;;;;;;5.05;4.65;;;;;;;;;;5111865;28;20225;-80
2023/04/27 14:16:25;;;;;;;5.30;4.80;;;;;;;;;;5111709;28;20225;-80
2023/04/27 14:18:52;;;;;;;5.43;5.00;;;;;;;;;;5111862;28;20233;-78
2023/04/27 14:21:20;;;;;;;5.18;4.78;;;;;;;;;;5111892;28;20194;-80
2023/04/27 14:23:47;;;;;;;5.50;4.93;;;;;;;;;;5112110;28;20251;-80
2023/04/27 14:26:14;;;;;;;5.22;4.80;;;;;;;;;;5111527;28;20666;-80
2023/04/27 14:28:43;;;;;;;5.75;5.32;;;;;;;;;;5111888;28;20229;-79
2023/04/27 14:31:10;;;;;;;5.78;5.28;;;;;;;;;;5111545;28;20205;-80
2023/04/27 14:33:37;;;;;;;5.57;5.18;;;;;;;;;;5112032;28;20225;-80
2023/04/27 14:36:05;;;;;;;6.07;5.57;;;;;;;;;;5111826;28;20237;-80
2023/04/27 14:38:32;;;;;;;5.85;5.35;;;;;;;;;;5111658;28;20247;-80